Time;durP1;ratioP1;P1;durP2;ratioP2;P2;SDS_P1;SDS_P2;PMS_P1;PMS_P2;Temp;Humidity;BMP_temperature;BMP_pressure;BME280_temperature;BME280_humidity;BME280_pressure;Samples;Min_cycle;Max_cycle;Signal;HPM_P1;HPM_P2
2024/01/10 00:02:22;;;;;;;2.55;2.20;;;;;;;-4.52;63.38;103251.53;5154441;27;20417;-77
2024/01/10 00:04:49;;;;;;;4.10;2.10;;;;;;;-4.51;63.28;103263.50;5153946;27;20051;-77
2024/01/10 00:07:16;;;;;;;2.55;2.20;;;;;;;-4.52;63.47;103255.97;5154285;27;20044;-74
2024/01/10 00:09:42;;;;;;;1.88;1.70;;;;;;;-4.53;63.63;103257.78;5154176;27;20039;-74
2024/01/10 00:12:09;;;;;;;5.30;1.80;;;;;;;-4.53;63.70;103257.78;5154894;27;20046;-74
2024/01/10 00:14:35;;;;;;;2.00;1.80;;;;;;;-4.54;63.70;103256.25;5154331;27;20047;-74
2024/01/10 00:17:02;;;;;;;3.50;2.30;;;;;;;-4.55;63.77;103249.47;5153956;27;20587;-74
2024/01/10 00:19:29;;;;;;;3.60;1.83;;;;;;;-4.56;64.16;103247.94;5153320;27;20043;-74
2024/01/10 00:21:55;;;;;;;3.50;2.50;;;;;;;-4.57;64.21;103249.00;5155013;27;20085;-73
2024/01/10 00:24:22;;;;;;;3.08;2.35;;;;;;;-4.58;64.38;103251.84;5153317;27;20134;-73
2024/01/10 00:26:49;;;;;;;2.30;1.95;;;;;;;-4.59;64.38;103245.09;5153513;27;20051;-75
2024/01/10 00:29:15;;;;;;;2.47;2.25;;;;;;;-4.60;64.58;103249.53;5154293;27;20136;-75
2024/01/10 00:31:42;;;;;;;4.15;1.85;;;;;;;-4.62;64.72;103243.84;5153696;27;20040;-74
2024/01/10 00:34:08;;;;;;;3.60;2.50;;;;;;;-4.62;64.79;103240.47;5154230;27;20043;-75
2024/01/10 00:36:35;;;;;;;3.03;2.25;;;;;;;-4.63;64.99;103239.69;5156571;27;20876;-75
2024/01/10 00:39:02;;;;;;;2.85;2.10;;;;;;;-4.64;65.07;103235.53;5159331;27;20043;-75
2024/01/10 00:41:28;;;;;;;3.78;2.80;;;;;;;-4.64;65.00;103235.53;5165835;27;20104;-74
2024/01/10 00:43:55;;;;;;;2.22;2.03;;;;;;;-4.64;65.36;103234.75;5165940;27;20059;-74
2024/01/10 00:46:22;;;;;;;1.70;1.60;;;;;;;-4.65;65.16;103238.41;5163835;27;20047;-74
2024/01/10 00:48:48;;;;;;;4.13;2.08;;;;;;;-4.67;65.22;103235.31;5139253;27;20134;-74
2024/01/10 00:51:15;;;;;;;2.83;2.30;;;;;;;-4.68;65.39;103229.31;5158017;27;20548;-74
2024/01/10 00:53:42;;;;;;;2.22;2.08;;;;;;;-4.69;65.50;103230.38;5156783;27;20047;-75
2024/01/10 00:56:09;;;;;;;3.08;2.25;;;;;;;-4.70;65.19;103218.44;5157435;27;23101;-75
2024/01/10 00:58:36;;;;;;;2.95;2.25;;;;;;;-4.71;65.53;103224.69;5156538;27;20043;-74
2024/01/10 01:01:02;;;;;;;2.22;2.03;;;;;;;-4.71;65.53;103219.47;5156968;27;20035;-75
2024/01/10 01:03:29;;;;;;;2.78;2.25;;;;;;;-4.71;65.49;103220.25;5156943;27;20746;-74
2024/01/10 01:05:56;;;;;;;5.07;2.30;;;;;;;-4.70;65.56;103228.81;5157115;27;20067;-74
2024/01/10 01:08:22;;;;;;;2.25;1.98;;;;;;;-4.72;65.90;103226.50;5156883;27;20051;-74
2024/01/10 01:10:49;;;;;;;3.30;2.45;;;;;;;-4.72;65.85;103226.50;5157023;27;20104;-75
2024/01/10 01:13:16;;;;;;;3.08;2.10;;;;;;;-4.72;65.94;103221.31;5157202;27;20099;-74
2024/01/10 01:15:43;;;;;;;3.35;2.15;;;;;;;-4.72;66.01;103223.91;5156796;27;20047;-74
2024/01/10 01:18:12;;;;;;;2.90;2.17;;;;;;;-4.72;65.91;103228.31;5137178;27;20044;-75
2024/01/10 01:20:39;;;;;;;2.35;2.10;;;;;;;-4.72;66.01;103220.53;5156028;27;20043;-75
2024/01/10 01:23:05;;;;;;;3.47;2.40;;;;;;;-4.71;66.10;103214.28;5156598;27;20395;-74
2024/01/10 01:25:32;;;;;;;2.67;2.47;;;;;;;-4.71;65.73;103220.25;5157011;27;20039;-74
2024/01/10 01:27:58;;;;;;;2.58;2.35;;;;;;;-4.72;65.98;103213.50;5156927;27;20119;-74
2024/01/10 01:30:25;;;;;;;3.13;2.78;;;;;;;-4.73;65.99;103219.75;5156239;27;20054;-74
2024/01/10 01:32:52;;;;;;;3.15;2.58;;;;;;;-4.73;66.42;103217.16;5137820;27;20047;-75
2024/01/10 01:35:22;;;;;;;2.65;2.03;;;;;;;-4.72;66.14;103221.31;5157227;27;20047;-74
2024/01/10 01:37:49;;;;;;;6.57;2.47;;;;;;;-4.71;66.07;103214.28;5157216;27;20118;-74
2024/01/10 01:40:16;;;;;;;3.65;2.25;;;;;;;-4.72;66.15;103208.31;5155607;27;20039;-74
2024/01/10 01:42:45;;;;;;;2.60;2.00;;;;;;;-4.71;66.20;103209.09;5155790;27;20127;-75
2024/01/10 01:45:12;;;;;;;3.58;2.60;;;;;;;-4.71;66.17;103206.50;5155873;27;20039;-74
2024/01/10 01:47:39;;;;;;;4.97;2.28;;;;;;;-4.71;65.80;103193.50;5154839;27;20606;-75
2024/01/10 01:50:07;;;;;;;2.50;2.17;;;;;;;-4.72;66.51;103194.53;5156377;27;20051;-75
2024/01/10 01:52:34;;;;;;;3.75;2.53;;;;;;;-4.72;66.37;103191.94;5137007;27;20118;-74
2024/01/10 01:55:02;;;;;;;4.38;2.50;;;;;;;-4.73;66.32;103188.56;5156132;27;20466;-74
2024/01/10 01:57:29;;;;;;;2.88;2.45;;;;;;;-4.76;66.59;103189.13;5156119;27;20043;-74
2024/01/10 01:59:56;;;;;;;2.85;2.42;;;;;;;-4.76;66.58;103190.94;5156665;27;20599;-74
2024/01/10 02:02:24;;;;;;;4.10;2.20;;;;;;;-4.77;66.32;103194.59;5156684;27;20043;-74
2024/01/10 02:04:50;;;;;;;3.17;2.33;;;;;;;-4.79;66.49;103191.47;5156035;27;20047;-74
2024/01/10 02:07:17;;;;;;;2.50;2.15;;;;;;;-4.82;66.51;103190.25;5156447;27;20070;-78
2024/01/10 02:09:44;;;;;;;5.55;1.85;;;;;;;-4.82;66.79;103194.66;5161049;27;20134;-78
2024/01/10 02:12:10;;;;;;;2.60;2.25;;;;;;;-4.84;66.84;103194.16;5118135;27;20521;-78
2024/01/10 02:14:37;;;;;;;3.15;2.40;;;;;;;-4.84;67.15;103188.97;5162203;27;20047;-78
2024/01/10 02:17:04;;;;;;;3.30;2.13;;;;;;;-4.88;67.02;103190.56;5160379;27;20051;-78
2024/01/10 02:19:32;;;;;;;2.67;1.90;;;;;;;-4.89;67.36;103173.41;5158185;27;20222;-78
2024/01/10 02:21:59;;;;;;;2.97;2.17;;;;;;;-4.90;67.69;103179.66;5158497;27;20054;-78
2024/01/10 02:24:25;;;;;;;3.47;2.80;;;;;;;-4.91;68.20;103178.13;5157548;27;20047;-78
2024/01/10 02:26:52;;;;;;;2.55;2.20;;;;;;;-4.93;68.24;103169.81;5157442;27;20081;-78
2024/01/10 02:29:18;;;;;;;4.18;2.83;;;;;;;-4.97;68.44;103171.41;5157026;27;20888;-78
2024/01/10 02:31:45;;;;;;;2.78;2.08;;;;;;;-4.98;68.57;103167.25;5157427;27;20052;-78
2024/01/10 02:34:12;;;;;;;3.67;2.38;;;;;;;-5.03;68.65;103166.25;5157354;27;20047;-78
2024/01/10 02:36:39;;;;;;;3.53;2.33;;;;;;;-5.04;68.86;103162.09;5156206;27;20510;-78
2024/01/10 02:39:06;;;;;;;5.85;2.47;;;;;;;-5.05;68.88;103160.56;5157985;27;20092;-79
2024/01/10 02:41:33;;;;;;;2.30;2.15;;;;;;;-5.03;68.83;103161.06;5158186;27;20047;-78
2024/01/10 02:43:59;;;;;;;2.88;2.50;;;;;;;-5.06;68.98;103159.00;5158422;27;20050;-78
2024/01/10 02:46:29;;;;;;;3.03;2.28;;;;;;;-5.06;68.95;103159.00;5153724;27;20039;-78
2024/01/10 02:48:55;;;;;;;2.10;2.00;;;;;;;-5.07;69.09;103161.88;5156168;27;20043;-78
2024/01/10 02:51:24;;;;;;;2.67;2.33;;;;;;;-5.08;69.15;103157.72;5158545;27;20066;-78
2024/01/10 02:53:51;;;;;;;2.60;2.40;;;;;;;-5.09;69.28;103156.97;5157798;27;20106;-78
2024/01/10 02:56:17;;;;;;;11.05;2.42;;;;;;;-5.10;69.31;103155.41;5157673;27;20120;-77
2024/01/10 02:58:44;;;;;;;3.50;2.50;;;;;;;-5.10;69.48;103160.59;5154746;27;20058;-77
2024/01/10 03:01:13;;;;;;;4.32;2.78;;;;;;;-5.08;69.24;103157.72;5157359;27;20055;-78
2024/01/10 03:03:40;;;;;;;7.90;3.20;;;;;;;-5.08;69.29;103158.50;5157352;27;20053;-77
2024/01/10 03:06:07;;;;;;;2.88;2.42;;;;;;;-5.08;69.43;103158.50;5158417;27;20071;-77
2024/01/10 03:08:33;;;;;;;2.80;2.17;;;;;;;-5.07;69.64;103156.69;5157027;27;20047;-77
2024/01/10 03:11:00;;;;;;;5.50;2.63;;;;;;;-5.06;69.65;103153.81;5159627;27;20035;-77
2024/01/10 03:13:27;;;;;;;3.88;2.53;;;;;;;-5.04;69.74;103149.13;5147866;27;20134;-77
2024/01/10 03:15:54;;;;;;;2.97;2.30;;;;;;;-5.05;69.78;103155.38;5158810;27;20498;-77
2024/01/10 03:18:21;;;;;;;3.95;2.47;;;;;;;-5.05;69.84;103144.19;5159877;27;20047;-75
2024/01/10 03:20:47;;;;;;;2.58;2.35;;;;;;;-5.04;69.91;103156.13;5154894;27;20510;-74
2024/01/10 03:23:14;;;;;;;3.97;2.40;;;;;;;-5.04;69.96;103148.34;5153829;27;20043;-74
2024/01/10 03:25:40;;;;;;;4.50;1.92;;;;;;;-5.06;69.94;103142.66;5154648;27;20044;-74
2024/01/10 03:28:07;;;;;;;2.33;2.08;;;;;;;-5.05;70.09;103141.59;5154981;27;20047;-74
2024/01/10 03:30:33;;;;;;;3.58;2.50;;;;;;;-5.05;70.16;103144.97;5154603;27;20594;-73
2024/01/10 03:33:00;;;;;;;4.03;2.90;;;;;;;-5.05;70.32;103142.38;5154585;27;20043;-74
2024/01/10 03:35:27;;;;;;;2.80;2.60;;;;;;;-5.04;70.22;103148.34;5155041;27;20123;-74
2024/01/10 03:37:53;;;;;;;3.25;2.45;;;;;;;-5.04;70.20;103145.75;5154988;27;20580;-73
2024/01/10 03:40:20;;;;;;;3.70;2.45;;;;;;;-5.04;70.39;103143.94;5154423;27;20049;-74
2024/01/10 03:42:46;;;;;;;3.85;2.50;;;;;;;-5.06;70.19;103148.63;5154161;27;20043;-74
2024/01/10 03:45:16;;;;;;;4.25;3.00;;;;;;;-5.07;69.91;103148.91;5154455;27;20456;-74
2024/01/10 03:47:49;;;;;;;3.67;2.80;;;;;;;-5.10;70.20;103139.81;5153848;27;20391;-74
2024/01/10 03:50:19;;;;;;;4.20;2.83;;;;;;;-5.09;70.26;103138.00;5153779;27;20151;-73
2024/01/10 03:52:46;;;;;;;4.68;2.58;;;;;;;-5.12;70.27;103139.31;5154298;27;20134;-74
2024/01/10 03:55:13;;;;;;;2.50;2.20;;;;;;;-5.14;70.10;103144.00;5153560;27;20088;-74
2024/01/10 03:57:39;;;;;;;5.82;2.83;;;;;;;-5.13;70.12;103134.41;5154487;27;20039;-73
2024/01/10 04:00:06;;;;;;;4.18;2.42;;;;;;;-5.15;70.13;103131.31;5153999;27;20043;-74
2024/01/10 04:02:33;;;;;;;3.20;2.55;;;;;;;-5.15;70.18;103126.09;5154063;27;20174;-74
2024/01/10 04:05:00;;;;;;;6.10;2.53;;;;;;;-5.16;70.23;103127.94;5154405;27;20047;-74
2024/01/10 04:07:28;;;;;;;3.47;2.80;;;;;;;-5.18;69.98;103129.25;5154182;27;20039;-74
2024/01/10 04:09:54;;;;;;;5.57;3.10;;;;;;;-5.18;70.15;103127.44;5153981;27;20047;-74
2024/01/10 04:12:21;;;;;;;3.53;2.40;;;;;;;-5.17;70.30;103123.00;5154463;27;20130;-74
2024/01/10 04:14:47;;;;;;;5.32;2.67;;;;;;;-5.19;70.06;103128.47;5154573;27;20051;-73
2024/01/10 04:17:14;;;;;;;4.82;2.90;;;;;;;-5.18;70.15;103119.63;5153391;27;20044;-73
2024/01/10 04:19:41;;;;;;;3.80;2.65;;;;;;;-5.20;70.25;103121.75;5154260;27;20506;-73
2024/01/10 04:22:07;;;;;;;3.40;2.42;;;;;;;-5.22;70.12;103118.66;5154383;27;20096;-73
2024/01/10 04:24:34;;;;;;;3.55;2.67;;;;;;;-5.23;70.20;103122.31;5153354;27;20522;-74
2024/01/10 04:27:00;;;;;;;2.85;2.10;;;;;;;-5.24;70.08;103122.56;5152866;27;20054;-74
2024/01/10 04:29:27;;;;;;;2.75;2.50;;;;;;;-5.25;70.30;103132.19;5153939;27;20043;-74
2024/01/10 04:31:53;;;;;;;4.70;2.70;;;;;;;-5.27;70.15;103123.13;5154509;27;20039;-74
2024/01/10 04:34:20;;;;;;;3.30;2.38;;;;;;;-5.27;70.37;103123.13;5153689;27;20104;-74
2024/01/10 04:36:46;;;;;;;2.95;2.40;;;;;;;-5.28;70.37;103119.75;5153855;27;20136;-73
2024/01/10 04:39:13;;;;;;;4.32;2.28;;;;;;;-5.29;70.32;103120.78;5154456;27;20093;-73
2024/01/10 04:41:40;;;;;;;4.10;2.25;;;;;;;-5.28;70.35;103119.75;5154159;27;20039;-73
2024/01/10 04:44:06;;;;;;;2.78;2.35;;;;;;;-5.28;70.38;103122.34;5153490;27;20047;-74
2024/01/10 04:46:33;;;;;;;3.17;2.75;;;;;;;-5.30;70.32;103114.06;5152832;27;20076;-74
2024/01/10 04:49:00;;;;;;;3.35;2.75;;;;;;;-5.31;70.09;103112.50;5153779;27;20138;-74
2024/01/10 04:51:27;;;;;;;5.40;3.17;;;;;;;-5.30;70.36;103111.47;5133443;27;20102;-74
2024/01/10 04:53:53;;;;;;;3.42;2.65;;;;;;;-5.32;70.30;103108.34;5153416;27;20118;-74
2024/01/10 04:56:20;;;;;;;3.67;2.22;;;;;;;-5.30;70.53;103105.50;5153482;27;20526;-75
2024/01/10 04:58:46;;;;;;;1.98;1.73;;;;;;;-5.29;70.32;103107.81;5153897;27;20583;-74
2024/01/10 05:01:13;;;;;;;5.15;2.80;;;;;;;-5.29;70.37;103101.84;5153341;27;20528;-74
2024/01/10 05:03:41;;;;;;;3.90;2.78;;;;;;;-5.31;70.17;103106.53;5147644;27;20050;-81
2024/01/10 05:06:11;;;;;;;3.25;2.60;;;;;;;-5.30;70.40;103098.47;5126525;27;20041;-80
2024/01/10 05:08:38;;;;;;;3.83;2.50;;;;;;;-5.30;70.12;103101.06;5149328;27;20484;-79
2024/01/10 05:11:04;;;;;;;3.63;2.47;;;;;;;-5.30;70.56;103101.06;5131738;27;20054;-80
2024/01/10 05:13:33;;;;;;;5.03;2.33;;;;;;;-5.29;70.38;103101.84;5167881;27;20042;-81
2024/01/10 05:16:01;;;;;;;7.32;3.03;;;;;;;-5.29;70.39;103096.66;5168103;27;20024;-81
2024/01/10 05:18:27;;;;;;;3.92;2.72;;;;;;;-5.28;70.38;103100.78;5168234;27;20087;-81
2024/01/10 05:20:54;;;;;;;3.15;2.85;;;;;;;-5.27;70.42;103110.91;5150666;27;20047;-81
2024/01/10 05:23:23;;;;;;;5.60;2.63;;;;;;;-5.28;70.38;103104.16;5172676;27;20053;-80
2024/01/10 05:25:49;;;;;;;7.95;2.83;;;;;;;-5.27;70.33;103102.34;5166667;27;20032;-81
2024/01/10 05:28:16;;;;;;;2.85;2.20;;;;;;;-5.30;70.21;103088.09;5168080;27;20054;-81
2024/01/10 05:30:43;;;;;;;4.18;2.28;;;;;;;-5.31;70.36;103089.13;5129467;27;20078;-81
2024/01/10 05:33:10;;;;;;;2.53;2.25;;;;;;;-5.32;70.25;103089.41;5165372;27;20047;-80
2024/01/10 05:35:42;;;;;;;4.85;2.28;;;;;;;-5.32;70.38;103090.19;5129955;27;20086;-80
2024/01/10 05:38:08;;;;;;;2.97;2.65;;;;;;;-5.33;70.60;103088.63;5166185;27;20031;-79
2024/01/10 05:40:35;;;;;;;3.33;2.55;;;;;;;-5.34;70.47;103087.09;5166589;27;20038;-79
2024/01/10 05:43:02;;;;;;;4.10;2.80;;;;;;;-5.35;70.44;103087.34;5166431;27;20039;-80
2024/01/10 05:45:29;;;;;;;4.68;3.28;;;;;;;-5.36;70.57;103086.59;5164541;27;20809;-79
2024/01/10 05:47:55;;;;;;;2.70;2.50;;;;;;;-5.37;70.55;103088.41;5165723;27;20051;-78
2024/01/10 05:50:22;;;;;;;4.65;3.25;;;;;;;-5.37;70.75;103091.00;5165130;27;20051;-79
2024/01/10 05:52:48;;;;;;;5.75;2.88;;;;;;;-5.40;70.46;103090.78;5165349;27;20103;-80
2024/01/10 05:55:17;;;;;;;9.30;2.92;;;;;;;-5.41;70.75;103091.81;5164150;27;20926;-80
2024/01/10 05:57:44;;;;;;;3.47;3.17;;;;;;;-5.41;70.78;103081.44;5147110;27;20047;-80
2024/01/10 06:00:12;;;;;;;4.13;2.78;;;;;;;-5.40;70.85;103082.97;5145759;27;20051;-78
2024/01/10 06:02:39;;;;;;;4.00;2.83;;;;;;;-5.43;70.82;103076.50;5165086;27;20042;-80
2024/01/10 06:05:10;;;;;;;6.72;3.08;;;;;;;-5.43;70.75;103083.53;5165113;27;20075;-81
2024/01/10 06:07:40;;;;;;;5.07;2.67;;;;;;;-5.48;71.01;103080.97;5147505;27;20147;-81
2024/01/10 06:10:07;;;;;;;5.83;3.13;;;;;;;-5.48;70.91;103086.94;5172205;27;20058;-82
2024/01/10 06:12:35;;;;;;;4.82;3.35;;;;;;;-5.46;70.66;103086.66;5171462;27;20050;-80
2024/01/10 06:15:02;;;;;;;3.53;2.53;;;;;;;-5.46;70.87;103087.44;5155749;27;20143;-73
2024/01/10 06:17:30;;;;;;;4.03;2.97;;;;;;;-5.46;70.79;103097.06;5155732;27;20502;-73
2024/01/10 06:19:58;;;;;;;3.47;2.95;;;;;;;-5.46;71.01;103091.84;5155635;27;20134;-75
2024/01/10 06:22:26;;;;;;;3.50;3.20;;;;;;;-5.45;70.80;103094.19;5155148;27;20174;-73
2024/01/10 06:24:56;;;;;;;4.15;2.65;;;;;;;-5.47;70.87;103090.31;5155664;27;20124;-74
2024/01/10 06:27:22;;;;;;;5.05;3.65;;;;;;;-5.47;70.85;103090.31;5155081;27;20054;-74
2024/01/10 06:29:49;;;;;;;6.35;3.00;;;;;;;-5.47;70.92;103092.91;5151384;27;20062;-75
2024/01/10 06:32:15;;;;;;;3.95;3.13;;;;;;;-5.47;70.64;103087.72;5154817;27;20433;-74
2024/01/10 06:34:42;;;;;;;4.22;3.05;;;;;;;-5.49;70.97;103082.03;5153746;27;20118;-74
2024/01/10 06:37:09;;;;;;;4.93;2.42;;;;;;;-5.52;71.11;103083.34;5156342;27;20525;-74
2024/01/10 06:39:35;;;;;;;4.32;2.85;;;;;;;-5.52;70.89;103079.97;5155540;27;20043;-74
2024/01/10 06:42:05;;;;;;;6.30;3.65;;;;;;;-5.52;70.99;103087.75;5155292;27;20066;-74
2024/01/10 06:44:33;;;;;;;7.25;3.47;;;;;;;-5.51;70.94;103076.31;5153958;27;20043;-74
2024/01/10 06:47:00;;;;;;;5.97;3.20;;;;;;;-5.54;70.78;103089.84;5156203;27;20054;-74
2024/01/10 06:49:27;;;;;;;3.65;2.80;;;;;;;-5.53;70.88;103091.41;5154511;27;20053;-74
2024/01/10 06:51:54;;;;;;;6.30;3.63;;;;;;;-5.52;71.22;103085.94;5155256;27;20050;-74
2024/01/10 06:54:20;;;;;;;4.10;3.30;;;;;;;-5.54;71.13;103082.06;5151536;27;20073;-74
2024/01/10 06:56:47;;;;;;;4.75;3.75;;;;;;;-5.56;71.14;103077.13;5155732;27;20078;-74
2024/01/10 06:59:13;;;;;;;4.88;3.45;;;;;;;-5.56;71.00;103082.34;5155148;27;20054;-74
2024/01/10 07:01:40;;;;;;;4.95;3.10;;;;;;;-5.57;71.33;103080.00;5154849;27;20041;-74
2024/01/10 07:04:07;;;;;;;6.90;3.20;;;;;;;-5.59;71.07;103087.28;5155831;27;20047;-74
2024/01/10 07:06:33;;;;;;;6.90;3.67;;;;;;;-5.60;71.33;103077.97;5154867;27;20043;-74
2024/01/10 07:09:00;;;;;;;4.10;3.10;;;;;;;-5.59;71.09;103087.28;5155557;27;20054;-73
2024/01/10 07:11:28;;;;;;;11.20;3.78;;;;;;;-5.60;71.27;103093.56;5155054;27;20558;-73
2024/01/10 07:13:55;;;;;;;8.23;3.10;;;;;;;-5.63;71.04;103094.09;5152762;27;20379;-73
2024/01/10 07:16:22;;;;;;;4.93;3.55;;;;;;;-5.60;71.11;103085.78;5154081;27;20047;-73
2024/01/10 07:18:51;;;;;;;5.32;3.30;;;;;;;-5.60;71.17;103083.16;5156090;27;20043;-73
2024/01/10 07:21:18;;;;;;;8.07;4.20;;;;;;;-5.62;71.07;103087.84;5153872;27;20039;-74
2024/01/10 07:23:44;;;;;;;5.00;3.72;;;;;;;-5.63;71.37;103089.69;5154747;27;20126;-75
2024/01/10 07:26:14;;;;;;;7.03;3.53;;;;;;;-5.64;71.44;103084.75;5154466;27;20051;-73
2024/01/10 07:28:41;;;;;;;3.85;2.95;;;;;;;-5.64;71.02;103097.75;5154883;27;20506;-74
2024/01/10 07:31:08;;;;;;;4.18;3.17;;;;;;;-5.63;71.01;103091.50;5154410;27;20071;-73
2024/01/10 07:33:35;;;;;;;4.60;3.22;;;;;;;-5.64;71.45;103098.50;5154223;27;20528;-73
2024/01/10 07:36:02;;;;;;;4.45;3.22;;;;;;;-5.65;71.27;103096.97;5154611;27;20043;-73
2024/01/10 07:38:28;;;;;;;5.30;3.53;;;;;;;-5.69;71.01;103097.78;5153893;27;20131;-74
2024/01/10 07:40:55;;;;;;;6.88;3.05;;;;;;;-5.70;70.91;103099.59;5148394;27;20055;-73
2024/01/10 07:43:22;;;;;;;4.60;3.45;;;;;;;-5.71;70.86;103098.81;5153996;27;20047;-73
2024/01/10 07:45:49;;;;;;;3.85;3.25;;;;;;;-5.68;70.71;103099.31;5153757;27;20043;-73
2024/01/10 07:48:15;;;;;;;4.25;3.13;;;;;;;-5.67;70.94;103103.47;5153433;27;20450;-75
2024/01/10 07:50:42;;;;;;;7.55;3.00;;;;;;;-5.68;70.46;103097.50;5154887;27;20099;-75
2024/01/10 07:53:09;;;;;;;4.07;3.17;;;;;;;-5.69;70.82;103108.94;5154500;27;20075;-75
2024/01/10 07:55:35;;;;;;;6.35;3.22;;;;;;;-5.72;70.56;103110.25;5136683;27;20050;-74
2024/01/10 07:58:02;;;;;;;6.45;3.70;;;;;;;-5.71;70.42;103114.38;5154989;27;20039;-75
2024/01/10 08:00:30;;;;;;;5.22;3.15;;;;;;;-5.68;70.50;103123.44;5150483;27;20447;-74
2024/01/10 08:02:58;;;;;;;4.45;3.53;;;;;;;-5.66;70.16;103118.00;5153865;27;20051;-74
2024/01/10 08:05:24;;;;;;;5.03;3.03;;;;;;;-5.64;70.21;103126.28;5154079;27;20119;-73
2024/01/10 08:07:52;;;;;;;4.65;3.55;;;;;;;-5.66;69.99;103115.41;5155040;27;20043;-74
2024/01/10 08:10:18;;;;;;;7.03;3.78;;;;;;;-5.67;69.78;103119.03;5153670;27;20073;-73
2024/01/10 08:12:45;;;;;;;4.72;3.72;;;;;;;-5.64;70.02;103119.28;5154452;27;20043;-74
2024/01/10 08:15:12;;;;;;;4.88;3.50;;;;;;;-5.63;69.91;103123.41;5154843;27;20083;-73
2024/01/10 08:17:38;;;;;;;6.35;3.90;;;;;;;-5.58;69.84;103112.19;5134673;27;20081;-73
2024/01/10 08:20:08;;;;;;;4.82;3.05;;;;;;;-5.58;69.53;103117.38;5154834;27;20042;-73
2024/01/10 08:22:34;;;;;;;6.90;3.92;;;;;;;-5.55;69.39;103119.44;5153833;27;20043;-74
2024/01/10 08:25:02;;;;;;;5.18;3.42;;;;;;;-5.53;69.23;103112.16;5148785;27;20064;-72
2024/01/10 08:27:29;;;;;;;4.97;3.55;;;;;;;-5.52;68.93;103109.28;5152090;27;20050;-73
2024/01/10 08:29:56;;;;;;;6.20;4.05;;;;;;;-5.50;69.00;103104.59;5154036;27;20502;-74
2024/01/10 08:32:23;;;;;;;10.55;4.43;;;;;;;-5.48;68.86;103104.34;5154136;27;20466;-73
2024/01/10 08:34:49;;;;;;;8.23;3.63;;;;;;;-5.46;68.77;103107.44;5154660;27;20043;-75
2024/01/10 08:37:17;;;;;;;5.32;3.10;;;;;;;-5.42;68.42;103103.25;5153084;27;20043;-73
2024/01/10 08:39:47;;;;;;;12.50;4.03;;;;;;;-5.41;68.64;103104.78;5154085;27;20043;-73
2024/01/10 08:42:16;;;;;;;6.40;3.70;;;;;;;-5.37;68.17;103105.81;5153715;27;20486;-75
2024/01/10 08:44:43;;;;;;;6.72;3.72;;;;;;;-5.36;68.15;103096.97;5152957;27;20043;-72
2024/01/10 08:47:09;;;;;;;4.93;3.42;;;;;;;-5.33;68.09;103109.41;5154167;27;20498;-73
2024/01/10 08:49:36;;;;;;;9.52;3.88;;;;;;;-5.29;67.88;103113.00;5153857;27;20035;-73
2024/01/10 08:52:03;;;;;;;5.07;3.67;;;;;;;-5.26;67.81;103104.66;5154177;27;20039;-74
2024/01/10 08:54:30;;;;;;;6.55;3.35;;;;;;;-5.23;67.48;103091.16;5153648;27;20134;-73
2024/01/10 08:56:56;;;;;;;4.93;3.25;;;;;;;-5.20;67.09;103103.56;5156658;27;20043;-74
2024/01/10 08:59:24;;;;;;;3.50;3.05;;;;;;;-5.18;67.10;103088.47;5156846;27;20039;-73
2024/01/10 09:01:52;;;;;;;9.80;3.47;;;;;;;-5.15;67.00;103094.94;5157371;27;20976;-76
2024/01/10 09:04:20;;;;;;;5.63;3.47;;;;;;;-5.12;66.88;103105.56;5161415;27;20126;-78
2024/01/10 09:06:47;;;;;;;3.83;2.75;;;;;;;-5.05;66.85;103106.00;5161881;27;20093;-75
2024/01/10 09:09:14;;;;;;;5.43;3.50;;;;;;;-4.99;66.33;103104.13;5156743;27;20096;-73
2024/01/10 09:11:40;;;;;;;4.82;2.95;;;;;;;-4.95;66.32;103107.72;5156973;27;20051;-73
2024/01/10 09:14:09;;;;;;;4.25;3.58;;;;;;;-4.92;65.77;103104.59;5157169;27;20088;-73
2024/01/10 09:16:36;;;;;;;4.22;3.05;;;;;;;-4.88;65.76;103104.81;5156571;27;20040;-74
2024/01/10 09:19:03;;;;;;;3.90;3.30;;;;;;;-4.84;65.63;103113.59;5158026;27;20043;-73
2024/01/10 09:21:30;;;;;;;4.70;3.92;;;;;;;-4.80;65.41;103106.81;5155975;27;20043;-73
2024/01/10 09:23:57;;;;;;;5.13;3.10;;;;;;;-4.77;65.06;103101.03;5156450;27;20069;-73
2024/01/10 09:26:24;;;;;;;5.55;3.50;;;;;;;-4.72;64.98;103100.97;5156938;27;20051;-73
2024/01/10 09:28:51;;;;;;;5.68;3.30;;;;;;;-4.67;64.76;103097.53;5157025;27;20054;-73
2024/01/10 09:31:18;;;;;;;8.23;3.15;;;;;;;-4.64;64.61;103097.75;5155946;27;20082;-73
2024/01/10 09:33:44;;;;;;;6.28;3.83;;;;;;;-4.59;64.16;103100.31;5157655;27;20035;-73
2024/01/10 09:36:12;;;;;;;6.22;3.45;;;;;;;-4.54;63.51;103095.06;5154043;27;20043;-73
2024/01/10 09:38:39;;;;;;;5.43;3.92;;;;;;;-4.50;63.66;103098.63;5155478;27;20104;-73
2024/01/10 09:41:06;;;;;;;6.07;3.45;;;;;;;-4.45;63.37;103098.59;5157382;27;20130;-73
2024/01/10 09:43:36;;;;;;;3.92;3.20;;;;;;;-4.42;63.45;103095.41;5155440;27;20077;-73
2024/01/10 09:46:04;;;;;;;7.03;4.45;;;;;;;-4.37;63.22;103095.34;5156753;27;20479;-74
2024/01/10 09:48:31;;;;;;;3.78;3.33;;;;;;;-4.30;62.79;103095.00;5155960;27;20043;-74
2024/01/10 09:50:58;;;;;;;4.32;2.95;;;;;;;-4.25;62.40;103094.16;5154793;27;20043;-74
2024/01/10 09:53:27;;;;;;;5.63;3.53;;;;;;;-4.21;62.14;103098.50;5153211;27;20067;-74
2024/01/10 09:55:57;;;;;;;5.53;3.50;;;;;;;-4.16;61.99;103090.63;5155687;27;20510;-73
2024/01/10 09:58:25;;;;;;;6.13;3.50;;;;;;;-4.10;61.60;103099.91;5155172;27;20071;-73
2024/01/10 10:00:51;;;;;;;5.97;3.63;;;;;;;-4.06;61.64;103105.34;5155433;27;20043;-73
2024/01/10 10:03:19;;;;;;;4.90;3.38;;;;;;;-4.02;61.33;103101.13;5152871;27;20502;-73
2024/01/10 10:05:45;;;;;;;7.00;3.92;;;;;;;-3.96;61.21;103096.59;5151812;27;20041;-73
2024/01/10 10:08:21;;;;;;;8.32;4.55;;;;;;;-3.92;60.86;103095.75;5154866;27;20035;-73
2024/01/10 10:10:49;;;;;;;8.50;3.60;;;;;;;-3.89;60.88;103089.97;5155803;27;20134;-73
2024/01/10 10:13:29;;;;;;;5.72;3.97;;;;;;;-3.85;60.45;103103.97;5153813;27;20477;-73
2024/01/10 10:16:03;;;;;;;5.25;3.63;;;;;;;-3.80;60.96;103092.72;5155343;27;20050;-73
2024/01/10 10:18:31;;;;;;;6.50;3.97;;;;;;;-3.76;60.18;103104.88;5161428;27;20043;-74
2024/01/10 10:21:12;;;;;;;6.97;3.90;;;;;;;-3.68;60.67;103095.66;5157221;27;20520;-74
2024/01/10 10:23:41;;;;;;;8.07;5.03;;;;;;;-3.62;59.92;103099.72;5155477;27;20057;-73
2024/01/10 10:26:22;;;;;;;8.35;4.97;;;;;;;-3.57;59.57;103098.84;5154787;27;20076;-74
2024/01/10 10:28:51;;;;;;;6.03;4.35;;;;;;;-3.53;59.61;103100.59;5151455;27;20067;-73
2024/01/10 10:31:19;;;;;;;9.45;4.95;;;;;;;-3.47;59.34;103093.47;5151731;27;20053;-75
2024/01/10 10:33:48;;;;;;;4.90;3.75;;;;;;;-3.42;59.12;103093.41;5151985;27;20108;-74
2024/01/10 10:36:15;;;;;;;6.40;4.38;;;;;;;-3.37;58.99;103088.09;5135794;27;20565;-74
2024/01/10 10:38:42;;;;;;;8.13;4.20;;;;;;;-3.32;58.78;103085.41;5155747;27;20118;-74
2024/01/10 10:41:10;;;;;;;6.85;4.45;;;;;;;-3.28;58.39;103081.19;5155049;27;20170;-74
2024/01/10 10:43:38;;;;;;;10.18;5.13;;;;;;;-3.20;58.37;103079.75;5155358;27;20048;-74
2024/01/10 10:46:06;;;;;;;7.47;4.68;;;;;;;-3.16;57.87;103078.84;5154547;27;20096;-74
2024/01/10 10:48:36;;;;;;;6.88;4.38;;;;;;;-3.12;57.89;103073.84;5155597;27;20567;-74
2024/01/10 10:51:08;;;;;;;7.00;4.25;;;;;;;-3.07;58.00;103073.75;5155405;27;20482;-74
2024/01/10 10:53:37;;;;;;;7.40;4.53;;;;;;;-3.00;57.66;103070.75;5154614;27;20043;-74
2024/01/10 10:56:05;;;;;;;12.55;4.75;;;;;;;-2.93;57.33;103074.53;5154910;27;20047;-74
2024/01/10 10:58:38;;;;;;;5.72;3.83;;;;;;;-2.89;57.87;103074.72;5155326;27;20046;-73
2024/01/10 11:01:08;;;;;;;5.45;4.45;;;;;;;-2.86;57.28;103077.53;5155437;27;20047;-74
2024/01/10 11:03:37;;;;;;;9.50;5.15;;;;;;;-2.82;56.91;103070.66;5155463;27;20070;-74
2024/01/10 11:06:05;;;;;;;9.07;4.70;;;;;;;-2.77;56.93;103072.38;5154550;27;20039;-74
2024/01/10 11:08:36;;;;;;;9.07;4.53;;;;;;;-2.71;56.68;103073.81;5154223;27;20047;-74
2024/01/10 11:11:06;;;;;;;6.97;4.85;;;;;;;-2.65;56.64;103075.25;5155020;27;20043;-74
2024/01/10 11:13:45;;;;;;;9.15;5.20;;;;;;;-2.61;56.72;103076.22;5154110;27;20043;-74
2024/01/10 11:16:33;;;;;;;6.47;4.63;;;;;;;-2.55;56.61;103082.13;5152857;27;20070;-74
2024/01/10 11:19:30;;;;;;;7.03;4.40;;;;;;;-2.50;56.67;103074.19;5152330;27;20559;-74
2024/01/10 11:22:26;;;;;;;7.55;4.45;;;;;;;-2.47;56.25;103071.75;5153895;27;20118;-74
2024/01/10 11:24:53;;;;;;;7.97;4.95;;;;;;;-2.42;56.32;103069.06;5150251;27;20047;-73
2024/01/10 11:27:20;;;;;;;7.88;4.70;;;;;;;-2.38;56.32;103064.00;5155160;27;20043;-73